Time;durP1;ratioP1;P1;durP2;ratioP2;P2;SDS_P1;SDS_P2;PMS_P1;PMS_P2;Temp;Humidity;BMP_temperature;BMP_pressure;BME280_temperature;BME280_humidity;BME280_pressure;Samples;Min_cycle;Max_cycle;Signal;HPM_P1;HPM_P2
2022/07/25 00:02:17;;;;;;;11.30;8.53;;;;;;;21.13;70.95;100235.42;1735972;81;21122;-59
2022/07/25 00:04:44;;;;;;;9.08;7.20;;;;;;;21.10;70.94;100234.47;1760723;80;21002;-59
2022/07/25 00:07:12;;;;;;;11.15;7.17;;;;;;;21.12;70.80;100236.95;1755993;80;21530;-59
2022/07/25 00:09:38;;;;;;;11.78;8.23;;;;;;;21.10;70.55;100239.82;1743119;79;21183;-60
2022/07/25 00:12:07;;;;;;;11.18;7.45;;;;;;;21.08;70.47;100233.00;1738545;79;21114;-59
2022/07/25 00:14:35;;;;;;;11.08;7.83;;;;;;;21.04;70.29;100232.56;1742688;79;21008;-60
2022/07/25 00:17:02;;;;;;;9.30;7.22;;;;;;;21.00;70.27;100230.47;1736634;81;21055;-60
2022/07/25 00:19:28;;;;;;;9.68;6.85;;;;;;;21.00;70.16;100231.80;1752156;80;21082;-60
2022/07/25 00:21:55;;;;;;;8.23;6.33;;;;;;;21.04;69.94;100231.75;1766449;81;21124;-59
2022/07/25 00:24:22;;;;;;;10.50;7.97;;;;;;;21.02;69.91;100229.78;1744209;80;21099;-60
2022/07/25 00:26:48;;;;;;;10.88;7.50;;;;;;;20.97;69.99;100230.36;1766276;80;21027;-60
2022/07/25 00:29:17;;;;;;;10.05;6.45;;;;;;;20.93;69.99;100231.27;1741499;79;21058;-59
2022/07/25 00:31:45;;;;;;;8.28;6.37;;;;;;;20.92;69.92;100231.45;1739342;79;21048;-59
2022/07/25 00:34:12;;;;;;;10.05;6.20;;;;;;;20.94;69.86;100227.55;1743450;80;21124;-59
2022/07/25 00:36:38;;;;;;;10.20;6.92;;;;;;;20.95;69.78;100233.23;1760107;79;21091;-59
2022/07/25 00:39:06;;;;;;;7.95;6.45;;;;;;;20.93;69.80;100233.09;1752525;80;21016;-59
2022/07/25 00:41:33;;;;;;;9.40;6.60;;;;;;;20.90;69.77;100229.50;1744261;80;21046;-59
2022/07/25 00:44:00;;;;;;;9.98;6.25;;;;;;;20.86;69.65;100230.89;1762320;80;21059;-59
2022/07/25 00:46:26;;;;;;;9.38;6.53;;;;;;;20.82;69.65;100234.98;1742705;80;21139;-59
2022/07/25 00:48:53;;;;;;;9.60;6.62;;;;;;;20.75;69.60;100227.73;1754850;80;21056;-59
2022/07/25 00:51:19;;;;;;;9.03;6.92;;;;;;;20.68;69.81;100228.19;1746255;80;21054;-60
2022/07/25 00:53:47;;;;;;;15.58;6.60;;;;;;;20.60;69.92;100233.13;1714124;82;21047;-60
2022/07/25 00:56:14;;;;;;;8.65;6.50;;;;;;;20.53;70.14;100230.09;1693723;82;21040;-60
2022/07/25 00:58:40;;;;;;;11.40;6.42;;;;;;;20.44;70.37;100229.37;1767235;80;21112;-59
2022/07/25 01:01:07;;;;;;;8.60;5.95;;;;;;;20.40;70.59;100226.77;1753200;80;20988;-59
2022/07/25 01:03:33;;;;;;;8.55;6.08;;;;;;;20.45;70.45;100232.89;1706033;82;21059;-60
2022/07/25 01:06:00;;;;;;;8.60;5.87;;;;;;;20.45;70.25;100222.20;1761274;79;21138;-59
2022/07/25 01:08:27;;;;;;;9.40;6.92;;;;;;;20.43;70.15;100225.05;1765317;80;21094;-59
2022/07/25 01:10:54;;;;;;;9.38;5.97;;;;;;;20.37;70.22;100229.82;1747819;80;21119;-59
2022/07/25 01:13:21;;;;;;;8.70;6.40;;;;;;;20.33;70.25;100224.55;1737197;80;21110;-59
2022/07/25 01:15:47;;;;;;;8.50;6.10;;;;;;;20.30;70.25;100222.25;1749503;80;21075;-60
2022/07/25 01:18:14;;;;;;;9.75;7.17;;;;;;;20.31;70.14;100221.22;1772745;80;21094;-59
2022/07/25 01:20:40;;;;;;;10.23;6.35;;;;;;;20.31;70.12;100220.73;1758140;80;21016;-59
2022/07/25 01:23:07;;;;;;;9.48;6.45;;;;;;;20.28;70.08;100220.30;1762645;80;21202;-59
2022/07/25 01:25:34;;;;;;;10.48;6.17;;;;;;;20.18;70.25;100221.41;1738386;80;21475;-59
2022/07/25 01:28:00;;;;;;;8.83;6.20;;;;;;;20.15;70.30;100222.31;1752925;80;21119;-59
2022/07/25 01:30:27;;;;;;;10.13;6.00;;;;;;;20.11;70.34;100216.52;1759596;80;21039;-59
2022/07/25 01:32:53;;;;;;;9.23;6.90;;;;;;;20.11;70.46;100224.53;1769012;80;21094;-59
2022/07/25 01:35:21;;;;;;;9.50;6.97;;;;;;;20.11;70.53;100222.38;1769694;79;21268;-59
2022/07/25 01:37:48;;;;;;;8.98;6.65;;;;;;;20.10;70.55;100233.55;1765313;80;21027;-59
2022/07/25 01:40:14;;;;;;;8.98;6.20;;;;;;;20.07;70.62;100227.77;1777879;80;21295;-59
2022/07/25 01:42:42;;;;;;;10.98;6.28;;;;;;;20.03;70.56;100228.14;1773057;80;21055;-58
2022/07/25 01:45:10;;;;;;;9.35;6.83;;;;;;;20.05;70.60;100227.95;1772739;79;21102;-59
2022/07/25 01:47:37;;;;;;;9.03;6.55;;;;;;;20.04;70.58;100231.66;1774736;80;21116;-60
2022/07/25 01:50:05;;;;;;;9.03;6.45;;;;;;;19.97;70.63;100232.06;1768839;79;21089;-59
2022/07/25 01:52:31;;;;;;;10.65;6.40;;;;;;;19.87;70.89;100228.39;1774137;80;21080;-59
2022/07/25 01:54:58;;;;;;;8.23;6.15;;;;;;;19.83;71.02;100229.76;1772646;80;21019;-59
2022/07/25 01:57:25;;;;;;;8.05;5.92;;;;;;;19.84;71.03;100233.58;1775612;80;21045;-60
2022/07/25 01:59:51;;;;;;;11.78;6.60;;;;;;;19.82;70.95;100229.42;1778201;80;21121;-60
2022/07/25 02:02:18;;;;;;;8.75;6.12;;;;;;;19.79;71.25;100231.98;1757629;80;21666;-59
2022/07/25 02:04:44;;;;;;;9.38;6.75;;;;;;;19.75;71.19;100233.34;1763805;78;21574;-60
2022/07/25 02:07:11;;;;;;;8.85;6.60;;;;;;;19.65;71.58;100228.30;1772896;80;21507;-60
2022/07/25 02:09:38;;;;;;;8.63;6.03;;;;;;;19.63;71.76;100235.63;1785137;79;21002;-59
2022/07/25 02:12:07;;;;;;;8.48;5.55;;;;;;;19.62;71.72;100231.33;1776249;80;21194;-59
2022/07/25 02:14:35;;;;;;;11.45;6.12;;;;;;;19.58;71.93;100223.87;1770462;80;21131;-59
2022/07/25 02:17:01;;;;;;;9.43;6.25;;;;;;;19.59;71.95;100226.36;1776035;80;21012;-59
2022/07/25 02:19:29;;;;;;;9.48;6.37;;;;;;;19.61;71.97;100231.52;1778366;80;20980;-59
2022/07/25 02:21:56;;;;;;;8.65;5.87;;;;;;;19.61;71.62;100236.33;1775012;80;21117;-59
2022/07/25 02:24:23;;;;;;;8.60;5.87;;;;;;;19.62;71.48;100235.84;1760596;79;21113;-66
2022/07/25 02:26:49;;;;;;;10.55;6.15;;;;;;;19.63;71.36;100233.48;1774128;80;21071;-59
2022/07/25 02:29:16;;;;;;;9.18;6.53;;;;;;;19.62;71.20;100226.51;1781414;78;21082;-60
2022/07/25 02:31:42;;;;;;;13.70;6.35;;;;;;;19.58;71.10;100225.20;1705770;83;21087;-59
2022/07/25 02:34:09;;;;;;;9.90;6.05;;;;;;;19.48;71.23;100233.00;1708798;82;21703;-60
2022/07/25 02:36:35;;;;;;;9.50;6.30;;;;;;;19.39;71.46;100227.42;1704119;82;21996;-59
2022/07/25 02:39:03;;;;;;;11.48;5.72;;;;;;;19.35;71.54;100231.97;1706543;83;21613;-59
2022/07/25 02:41:30;;;;;;;8.48;6.25;;;;;;;19.34;71.54;100231.67;1702816;83;21032;-59
2022/07/25 02:43:56;;;;;;;8.85;6.15;;;;;;;19.38;71.41;100232.94;1692897;82;21079;-59
2022/07/25 02:46:23;;;;;;;8.98;5.85;;;;;;;19.37;71.40;100236.13;1745121;80;21046;-59
2022/07/25 02:48:49;;;;;;;8.98;6.17;;;;;;;19.36;71.41;100239.80;1740902;80;21088;-59
2022/07/25 02:51:17;;;;;;;7.62;5.20;;;;;;;19.30;71.38;100238.70;1750060;82;21054;-59
2022/07/25 02:53:44;;;;;;;7.72;5.30;;;;;;;19.25;71.39;100242.94;1737797;80;21051;-59
2022/07/25 02:56:11;;;;;;;9.15;5.80;;;;;;;19.24;71.61;100245.27;1733290;82;21073;-59
2022/07/25 02:58:37;;;;;;;8.25;5.70;;;;;;;19.27;71.48;100244.91;1746370;80;21074;-59
2022/07/25 03:01:04;;;;;;;8.93;5.42;;;;;;;19.31;71.41;100244.85;1748202;80;21127;-59
2022/07/25 03:03:31;;;;;;;8.85;5.35;;;;;;;19.32;71.24;100242.52;1741707;80;21558;-59
2022/07/25 03:05:58;;;;;;;8.80;5.65;;;;;;;19.31;71.03;100241.67;1740365;80;21133;-59
2022/07/25 03:08:26;;;;;;;7.12;5.55;;;;;;;19.33;70.86;100245.48;1741654;82;21050;-59
2022/07/25 03:10:52;;;;;;;7.67;5.28;;;;;;;19.38;70.65;100243.09;1744110;80;21090;-59
2022/07/25 03:13:19;;;;;;;7.85;5.28;;;;;;;19.43;70.32;100245.22;1746485;82;21124;-59
2022/07/25 03:15:47;;;;;;;8.28;5.17;;;;;;;19.42;70.12;100244.41;1746591;80;21019;-59
2022/07/25 03:18:14;;;;;;;8.53;6.12;;;;;;;19.33;70.26;100246.83;1746911;82;21031;-58
2022/07/25 03:20:40;;;;;;;13.62;6.22;;;;;;;19.28;70.39;100251.40;1745262;80;21138;-59
2022/07/25 03:23:07;;;;;;;12.47;7.28;;;;;;;19.31;70.32;100245.67;1742613;82;21146;-59
2022/07/25 03:25:34;;;;;;;9.73;7.00;;;;;;;19.37;70.15;100250.80;1740684;80;21110;-59
2022/07/25 03:28:01;;;;;;;8.68;6.37;;;;;;;19.37;70.19;100255.31;1746248;82;21039;-59
2022/07/25 03:30:27;;;;;;;9.30;5.72;;;;;;;19.37;70.18;100245.47;1747576;80;21027;-60
2022/07/25 03:32:54;;;;;;;9.15;6.30;;;;;;;19.41;69.85;100247.25;1745787;82;21078;-59
2022/07/25 03:35:20;;;;;;;10.72;6.22;;;;;;;19.45;69.70;100244.04;1746388;79;21093;-59
2022/07/25 03:37:47;;;;;;;20.75;7.08;;;;;;;19.49;69.73;100251.98;1769619;80;21494;-59
2022/07/25 03:40:15;;;;;;;11.50;6.97;;;;;;;19.52;69.49;100252.62;1768644;80;21035;-59
2022/07/25 03:42:41;;;;;;;8.78;6.05;;;;;;;19.51;69.49;100249.65;1772522;80;21667;-58
2022/07/25 03:45:10;;;;;;;8.98;6.85;;;;;;;19.51;69.35;100253.14;1759728;79;21458;-59
2022/07/25 03:47:37;;;;;;;11.48;7.83;;;;;;;19.57;69.32;100256.90;1773840;80;21036;-60
2022/07/25 03:50:05;;;;;;;10.80;7.33;;;;;;;19.60;69.27;100257.86;1755841;80;21144;-59
2022/07/25 03:52:32;;;;;;;12.60;7.90;;;;;;;19.59;69.33;100257.56;1767343;80;21087;-59
2022/07/25 03:54:58;;;;;;;10.20;6.40;;;;;;;19.59;69.33;100254.89;1764009;79;21559;-59
2022/07/25 03:57:25;;;;;;;8.83;6.40;;;;;;;19.61;69.36;100258.20;1766125;80;21835;-59
2022/07/25 03:59:52;;;;;;;9.95;6.58;;;;;;;19.65;69.23;100257.66;1762398;80;21482;-58
2022/07/25 04:02:18;;;;;;;12.18;7.50;;;;;;;19.65;69.09;100252.80;1762777;80;21067;-59
2022/07/25 04:04:45;;;;;;;8.88;6.37;;;;;;;19.62;69.09;100254.53;1764841;79;21050;-60
2022/07/25 04:07:13;;;;;;;8.60;6.28;;;;;;;19.59;69.37;100260.23;1767645;80;21058;-58
2022/07/25 04:09:41;;;;;;;8.93;6.15;;;;;;;19.61;69.25;100261.69;1763417;79;21030;-58
2022/07/25 04:12:08;;;;;;;8.58;6.70;;;;;;;19.64;69.25;100262.66;1768854;80;20995;-59
2022/07/25 04:14:36;;;;;;;9.93;6.12;;;;;;;19.68;69.16;100267.11;1762936;79;22053;-59
2022/07/25 04:17:03;;;;;;;11.85;6.67;;;;;;;19.72;69.25;100271.09;1770167;80;21011;-59
2022/07/25 04:19:30;;;;;;;8.93;5.47;;;;;;;19.72;69.25;100269.75;1761506;80;21003;-59
2022/07/25 04:21:56;;;;;;;13.13;6.90;;;;;;;19.72;69.17;100274.24;1768256;79;21029;-59
2022/07/25 04:24:23;;;;;;;9.38;6.97;;;;;;;19.73;68.85;100268.72;1764190;80;21078;-59
2022/07/25 04:26:49;;;;;;;10.03;7.08;;;;;;;19.67;68.96;100271.63;1761048;80;21091;-58
2022/07/25 04:29:16;;;;;;;11.57;7.17;;;;;;;19.64;69.10;100267.18;1770119;79;21072;-59
2022/07/25 04:31:42;;;;;;;10.25;6.53;;;;;;;19.63;69.26;100278.85;1759852;80;21191;-59
2022/07/25 04:34:09;;;;;;;9.98;6.35;;;;;;;19.65;69.10;100279.49;1771875;80;21094;-59
2022/07/25 04:36:36;;;;;;;9.30;6.80;;;;;;;19.72;69.07;100277.77;1767672;79;21364;-59
2022/07/25 04:39:02;;;;;;;10.40;7.28;;;;;;;19.72;68.91;100278.25;1776527;80;21125;-58
2022/07/25 04:41:29;;;;;;;9.30;5.87;;;;;;;19.72;68.99;100268.41;1761715;79;21019;-57
2022/07/25 04:43:55;;;;;;;8.63;6.33;;;;;;;19.74;68.77;100273.57;1761808;80;21125;-59
2022/07/25 04:46:22;;;;;;;10.10;6.03;;;;;;;19.75;68.44;100274.73;1767324;79;21102;-59
2022/07/25 04:48:48;;;;;;;11.57;6.12;;;;;;;19.77;68.66;100276.73;1780040;80;21090;-58
2022/07/25 04:51:16;;;;;;;10.23;6.92;;;;;;;19.77;68.45;100276.73;1768088;79;21307;-58
2022/07/25 04:53:43;;;;;;;9.83;6.12;;;;;;;19.75;68.49;100280.06;1771121;80;21011;-58
2022/07/25 04:56:11;;;;;;;11.12;6.60;;;;;;;19.76;68.47;100280.40;1774712;80;21385;-60
2022/07/25 04:58:37;;;;;;;13.32;6.92;;;;;;;19.81;68.11;100279.84;1767848;80;21583;-58
2022/07/25 05:01:04;;;;;;;7.92;6.30;;;;;;;19.82;68.17;100285.00;1778482;79;21055;-58
2022/07/25 05:03:32;;;;;;;9.03;6.28;;;;;;;19.83;68.17;100285.83;1762875;80;21188;-59
2022/07/25 05:05:59;;;;;;;9.50;6.40;;;;;;;19.88;68.29;100283.94;1764055;79;21035;-58
2022/07/25 05:08:26;;;;;;;11.70;6.70;;;;;;;19.99;68.10;100286.14;1768108;80;21072;-59
2022/07/25 05:10:53;;;;;;;11.20;6.80;;;;;;;20.13;67.80;100287.12;1757627;79;21059;-59
2022/07/25 05:13:20;;;;;;;10.20;7.37;;;;;;;20.22;67.57;100282.81;1778665;80;21517;-58
2022/07/25 05:15:47;;;;;;;12.25;7.40;;;;;;;20.26;67.19;100280.59;1771268;80;21121;-59
2022/07/25 05:18:14;;;;;;;12.18;7.70;;;;;;;20.27;67.19;100287.57;1779977;80;21268;-59
2022/07/25 05:20:41;;;;;;;9.00;6.50;;;;;;;20.33;67.27;100284.67;1766117;79;21109;-59
2022/07/25 05:23:08;;;;;;;8.48;6.10;;;;;;;20.42;67.28;100282.19;1780016;80;21070;-58
2022/07/25 05:25:34;;;;;;;10.45;7.95;;;;;;;20.48;67.18;100276.09;1770271;79;21122;-58
2022/07/25 05:28:01;;;;;;;10.32;7.72;;;;;;;20.52;67.09;100279.20;1766676;80;21144;-59
2022/07/25 05:30:29;;;;;;;11.97;7.78;;;;;;;20.56;66.75;100271.95;1767269;79;21538;-58
2022/07/25 05:32:56;;;;;;;12.88;7.53;;;;;;;20.60;66.16;100269.20;1766134;80;22006;-58
2022/07/25 05:35:23;;;;;;;12.73;7.25;;;;;;;20.71;65.96;100276.42;1755527;79;21566;-57
2022/07/25 05:37:51;;;;;;;12.18;8.85;;;;;;;20.76;65.20;100273.52;1758175;80;21122;-58
2022/07/25 05:40:18;;;;;;;12.60;7.87;;;;;;;20.75;65.69;100270.51;1769299;80;21200;-58
2022/07/25 05:42:44;;;;;;;9.48;6.83;;;;;;;20.76;65.38;100274.00;1749303;80;21102;-58
2022/07/25 05:45:12;;;;;;;12.33;7.17;;;;;;;20.78;65.26;100276.81;1766893;79;21616;-57
2022/07/25 05:47:38;;;;;;;10.18;7.85;;;;;;;20.83;65.56;100274.91;1757268;80;21019;-57
2022/07/25 05:50:08;;;;;;;10.30;7.87;;;;;;;20.86;65.54;100275.83;1757821;80;21618;-58
2022/07/25 05:52:35;;;;;;;11.50;7.78;;;;;;;20.87;65.62;100269.99;1763474;80;21103;-58
2022/07/25 05:55:02;;;;;;;11.03;7.72;;;;;;;20.90;64.74;100268.27;1759397;79;21012;-58
2022/07/25 05:57:28;;;;;;;10.28;7.47;;;;;;;20.93;65.02;100267.37;1770197;80;21065;-58
2022/07/25 05:59:55;;;;;;;14.05;7.17;;;;;;;20.93;64.76;100274.55;1757142;80;21070;-59
2022/07/25 06:02:22;;;;;;;12.82;7.33;;;;;;;20.92;64.65;100271.58;1742724;82;21101;-59
2022/07/25 06:04:49;;;;;;;11.00;7.25;;;;;;;20.93;64.54;100265.19;1766288;79;21139;-58
2022/07/25 06:07:15;;;;;;;13.18;7.28;;;;;;;20.99;64.57;100267.62;1762399;80;21026;-58
2022/07/25 06:09:43;;;;;;;12.00;8.35;;;;;;;21.07;64.17;100267.48;1759867;80;21149;-59
2022/07/25 06:12:09;;;;;;;10.05;7.12;;;;;;;21.09;64.28;100268.92;1756395;79;21055;-58
2022/07/25 06:14:36;;;;;;;12.90;8.33;;;;;;;21.11;64.22;100268.20;1762327;80;22903;-58
2022/07/25 06:17:03;;;;;;;13.28;7.37;;;;;;;21.11;63.91;100269.55;1752933;80;21168;-59
2022/07/25 06:19:31;;;;;;;13.10;7.92;;;;;;;21.11;63.69;100270.06;1757011;80;21003;-58
2022/07/25 06:21:57;;;;;;;11.12;7.47;;;;;;;21.08;63.20;100269.96;1753929;80;21498;-59
2022/07/25 06:24:24;;;;;;;10.75;8.00;;;;;;;21.04;63.81;100269.20;1761537;80;21408;-59
2022/07/25 06:26:50;;;;;;;14.33;8.05;;;;;;;21.06;64.20;100271.98;1755987;80;21055;-57
2022/07/25 06:29:18;;;;;;;11.90;8.25;;;;;;;21.11;63.62;100278.09;1763571;80;22142;-59
2022/07/25 06:31:46;;;;;;;9.90;7.40;;;;;;;21.14;63.38;100262.99;1758145;80;21079;-58
2022/07/25 06:34:14;;;;;;;11.63;7.95;;;;;;;21.23;63.34;100272.54;1757736;80;21008;-58
2022/07/25 06:36:40;;;;;;;15.00;8.53;;;;;;;21.30;63.07;100277.41;1755626;79;21066;-58
2022/07/25 06:39:08;;;;;;;11.73;8.55;;;;;;;21.33;62.73;100269.00;1768789;79;21055;-58
2022/07/25 06:41:36;;;;;;;10.55;7.95;;;;;;;21.34;62.44;100267.96;1766878;79;21150;-59
2022/07/25 06:44:03;;;;;;;12.18;9.08;;;;;;;21.34;62.85;100273.31;1775760;79;21050;-58
2022/07/25 06:46:31;;;;;;;10.10;7.65;;;;;;;21.30;62.05;100269.39;1767057;79;21549;-58
2022/07/25 06:48:58;;;;;;;13.35;7.87;;;;;;;21.28;62.45;100262.08;1769258;80;21121;-59
2022/07/25 06:51:25;;;;;;;11.12;7.70;;;;;;;21.26;62.90;100266.77;1777256;78;21042;-58
2022/07/25 06:53:52;;;;;;;10.53;8.28;;;;;;;21.25;62.71;100266.47;1778084;80;21272;-58
2022/07/25 06:56:19;;;;;;;9.23;6.60;;;;;;;21.24;63.06;100268.83;1769771;80;21034;-59
2022/07/25 06:58:45;;;;;;;11.33;7.05;;;;;;;21.26;63.45;100272.13;1778531;80;21041;-58
2022/07/25 07:01:11;;;;;;;10.28;7.58;;;;;;;21.27;63.52;100272.45;1773309;79;21089;-58
2022/07/25 07:03:39;;;;;;;11.12;7.65;;;;;;;21.26;63.28;100276.14;1762116;80;21165;-59
2022/07/25 07:06:08;;;;;;;15.53;7.60;;;;;;;21.22;63.33;100266.86;1772093;78;21202;-59
2022/07/25 07:08:36;;;;;;;11.45;7.50;;;;;;;21.22;63.38;100270.05;1779763;80;21029;-59
2022/07/25 07:11:04;;;;;;;13.45;8.15;;;;;;;21.24;63.25;100268.00;1785479;79;21007;-58
2022/07/25 07:13:31;;;;;;;12.37;7.80;;;;;;;21.32;63.07;100269.20;1786822;80;21327;-59
2022/07/25 07:15:58;;;;;;;12.37;7.58;;;;;;;21.41;63.27;100276.03;1781087;78;21078;-59
2022/07/25 07:18:25;;;;;;;14.00;8.18;;;;;;;21.50;63.32;100270.03;1787112;80;21955;-59
2022/07/25 07:20:52;;;;;;;13.55;8.28;;;;;;;21.60;63.12;100265.17;1785094;79;21050;-58
2022/07/25 07:23:19;;;;;;;12.60;8.15;;;;;;;21.68;62.49;100260.15;1786028;80;21057;-57
2022/07/25 07:25:45;;;;;;;10.68;7.20;;;;;;;21.77;62.38;100260.80;1756502;80;21062;-59
2022/07/25 07:28:12;;;;;;;10.63;7.37;;;;;;;21.86;61.49;100268.47;1759211;80;20991;-58
2022/07/25 07:30:39;;;;;;;10.13;7.65;;;;;;;21.94;61.37;100263.95;1772161;80;21121;-59
2022/07/25 07:33:05;;;;;;;9.90;7.37;;;;;;;22.02;61.92;100265.97;1772671;80;21592;-59
2022/07/25 07:35:33;;;;;;;11.15;7.53;;;;;;;22.12;61.39;100254.84;1774310;78;21015;-59
2022/07/25 07:38:00;;;;;;;11.20;6.67;;;;;;;22.20;60.88;100259.20;1772257;80;21038;-58
2022/07/25 07:40:27;;;;;;;11.20;6.80;;;;;;;22.28;60.31;100255.53;1766492;79;21747;-59
2022/07/25 07:42:57;;;;;;;10.58;7.17;;;;;;;22.41;59.78;100256.41;1771315;80;21074;-58
2022/07/25 07:45:24;;;;;;;13.25;7.47;;;;;;;22.45;60.43;100259.50;1768159;78;21090;-59
2022/07/25 07:47:52;;;;;;;9.23;6.83;;;;;;;22.49;60.35;100259.39;1773238;80;21015;-59
2022/07/25 07:52:34;;;;;;;10.23;7.47;;;;;;;22.67;59.71;100256.11;1786513;78;22688;-58
2022/07/25 07:57:46;;;;;;;9.90;7.20;;;;;;;22.63;57.93;100256.22;1748049;81;22237;-59
2022/07/25 08:00:15;;;;;;;10.43;6.75;;;;;;;22.63;58.54;100259.72;1751637;80;21522;-61
2022/07/25 08:02:47;;;;;;;9.63;6.53;;;;;;;22.63;57.54;100260.25;1756137;81;20983;-59
2022/07/25 08:05:28;;;;;;;9.95;6.50;;;;;;;22.62;58.35;100258.06;1742131;80;22004;-60
2022/07/25 08:07:55;;;;;;;10.32;6.87;;;;;;;22.70;58.02;100258.91;1718773;81;21049;-60
2022/07/25 08:10:24;;;;;;;8.35;6.40;;;;;;;22.80;57.51;100252.62;1697368;83;21761;-60
2022/07/25 08:12:52;;;;;;;10.25;6.42;;;;;;;22.84;57.75;100257.05;1699880;83;21023;-60
2022/07/25 08:15:21;;;;;;;8.85;6.55;;;;;;;22.87;57.72;100263.34;1702641;82;21062;-59
2022/07/25 08:17:50;;;;;;;9.73;6.55;;;;;;;22.89;57.67;100247.86;1699690;83;21091;-61
2022/07/25 08:20:18;;;;;;;10.63;7.08;;;;;;;22.95;58.04;100253.75;1701035;82;21054;-58
2022/07/25 08:22:47;;;;;;;9.53;6.50;;;;;;;23.05;57.90;100249.28;1700334;83;21127;-60
2022/07/25 08:25:17;;;;;;;7.78;5.83;;;;;;;23.13;56.75;100250.44;1691376;83;21070;-60
2022/07/25 08:27:44;;;;;;;8.20;6.37;;;;;;;23.18;55.95;100250.14;1687763;84;21138;-60
2022/07/25 08:30:12;;;;;;;9.43;6.50;;;;;;;23.22;55.66;100246.52;1711987;81;21083;-59
2022/07/25 08:32:55;;;;;;;10.25;6.97;;;;;;;23.26;55.56;100249.08;1697387;84;21537;-60
2022/07/25 08:35:23;;;;;;;10.15;7.00;;;;;;;23.29;55.69;100246.51;1687340;83;21199;-59
2022/07/25 08:37:50;;;;;;;10.23;6.53;;;;;;;23.28;55.41;100247.00;1695598;83;21609;-59
2022/07/25 08:40:20;;;;;;;8.68;6.10;;;;;;;23.29;55.41;100242.48;1700731;83;21383;-59
2022/07/25 08:42:47;;;;;;;10.32;6.62;;;;;;;23.30;54.62;100242.77;1698177;84;21074;-58
2022/07/25 08:45:19;;;;;;;8.58;5.83;;;;;;;23.33;55.79;100249.91;1711039;81;21097;-59
2022/07/25 08:47:47;;;;;;;8.25;5.85;;;;;;;23.38;55.06;100243.89;1702364;81;21577;-60
2022/07/25 08:50:16;;;;;;;9.68;5.87;;;;;;;23.44;54.28;100244.40;1661627;83;21193;-59
2022/07/25 08:52:44;;;;;;;7.95;5.30;;;;;;;23.48;54.63;100234.88;1670679;84;21014;-60
2022/07/25 08:55:14;;;;;;;8.30;5.85;;;;;;;23.54;54.70;100235.91;1671375;83;21123;-58
2022/07/25 08:57:42;;;;;;;8.05;5.22;;;;;;;23.58;54.37;100237.64;1672555;85;21134;-60
2022/07/25 09:00:14;;;;;;;12.88;5.03;;;;;;;23.64;53.48;100239.49;1685606;84;21814;-60
2022/07/25 09:02:41;;;;;;;8.18;5.35;;;;;;;23.76;53.70;100243.68;1722717;80;21078;-59
2022/07/25 09:05:08;;;;;;;9.18;5.47;;;;;;;23.86;53.58;100235.48;1726629;80;21077;-60
2022/07/25 09:07:40;;;;;;;9.50;5.45;;;;;;;23.94;53.35;100238.46;1703865;82;21046;-59
2022/07/25 09:10:19;;;;;;;7.80;5.55;;;;;;;23.92;52.34;100235.98;1745623;80;21569;-59
2022/07/25 09:13:03;;;;;;;7.95;5.08;;;;;;;23.85;52.55;100236.52;1745555;80;21129;-60
2022/07/25 09:15:35;;;;;;;10.20;4.95;;;;;;;23.76;52.92;100233.75;1738548;80;21054;-60
2022/07/25 09:18:05;;;;;;;7.65;5.12;;;;;;;23.70;53.43;100237.28;1722131;80;21089;-60
2022/07/25 09:20:49;;;;;;;8.55;5.75;;;;;;;23.69;54.13;100233.78;1735171;80;21080;-59
2022/07/25 09:23:35;;;;;;;7.53;5.22;;;;;;;23.69;53.72;100235.12;1724825;82;21533;-59
2022/07/25 09:26:12;;;;;;;7.85;4.62;;;;;;;23.69;53.35;100233.78;1729782;80;21095;-60
2022/07/25 09:28:51;;;;;;;9.15;5.75;;;;;;;23.72;52.95;100229.83;1724247;80;21005;-60
2022/07/25 09:31:21;;;;;;;8.58;5.00;;;;;;;23.85;52.57;100227.64;1732570;80;21094;-59
2022/07/25 09:33:58;;;;;;;9.08;4.95;;;;;;;23.99;52.14;100223.86;1740798;82;21534;-59
2022/07/25 09:36:25;;;;;;;8.93;5.47;;;;;;;24.14;52.62;100228.95;1739733;82;21085;-60
2022/07/25 09:38:59;;;;;;;11.10;5.03;;;;;;;24.23;50.46;100217.41;1746313;82;21836;-59
2022/07/25 09:41:36;;;;;;;7.22;4.90;;;;;;;24.21;49.92;100221.66;1732670;82;21687;-59
2022/07/25 09:44:16;;;;;;;8.40;5.30;;;;;;;24.18;50.26;100223.42;1732572;80;21063;-58
2022/07/25 09:46:43;;;;;;;7.87;4.30;;;;;;;24.15;50.36;100231.92;1746735;80;21486;-59
2022/07/25 09:49:13;;;;;;;7.42;4.90;;;;;;;24.19;51.29;100227.78;1724611;80;21062;-60
2022/07/25 09:51:38;;;;;;;8.95;4.83;;;;;;;24.27;50.01;100228.02;1740337;80;21317;-59
2022/07/25 09:54:04;;;;;;;8.25;4.67;;;;;;;24.37;50.12;100226.20;1738849;80;21071;-59
2022/07/25 09:56:34;;;;;;;6.05;3.72;;;;;;;24.46;49.77;100218.16;1736091;82;21585;-59
2022/07/25 09:59:02;;;;;;;5.97;4.05;;;;;;;24.55;48.25;100233.56;1715718;80;21563;-60
2022/07/25 10:01:40;;;;;;;6.90;3.45;;;;;;;24.54;46.59;100223.80;1733765;81;21056;-59
2022/07/25 10:04:27;;;;;;;6.37;3.85;;;;;;;24.53;47.17;100209.54;1736303;80;21142;-58
2022/07/25 10:07:03;;;;;;;6.53;3.77;;;;;;;24.59;46.82;100222.65;1732111;82;21008;-60
2022/07/25 10:09:30;;;;;;;5.92;4.03;;;;;;;24.66;45.44;100222.91;1733534;80;21063;-59
2022/07/25 10:12:08;;;;;;;6.65;3.85;;;;;;;24.72;46.33;100220.38;1739938;80;21054;-59
2022/07/25 10:14:37;;;;;;;6.97;4.00;;;;;;;24.78;46.56;100220.83;1728425;80;21078;-60
2022/07/25 10:17:06;;;;;;;6.33;4.03;;;;;;;24.84;46.26;100221.30;1734976;80;21522;-58
2022/07/25 10:19:45;;;;;;;6.72;4.70;;;;;;;24.87;47.50;100222.74;1737623;80;21000;-58
2022/07/25 10:22:12;;;;;;;8.55;3.80;;;;;;;24.85;47.14;100216.23;1739003;82;21019;-59
2022/07/25 10:24:46;;;;;;;7.50;3.72;;;;;;;24.81;47.90;100219.89;1738988;80;21004;-59
2022/07/25 10:27:15;;;;;;;5.85;3.80;;;;;;;24.76;48.09;100218.89;1736257;82;21055;-58
2022/07/25 10:29:42;;;;;;;6.55;3.17;;;;;;;24.69;48.84;100218.12;1734549;80;21315;-58
2022/07/25 10:32:12;;;;;;;5.00;3.12;;;;;;;24.63;47.31;100213.12;1724670;81;21081;-59
2022/07/25 10:34:39;;;;;;;6.28;3.45;;;;;;;24.59;45.96;100214.05;1739175;80;21063;-59
2022/07/25 10:37:14;;;;;;;6.08;2.80;;;;;;;24.64;46.49;100212.87;1734603;81;21499;-58
2022/07/25 10:39:50;;;;;;;5.37;3.22;;;;;;;24.76;44.86;100212.97;1737146;80;21059;-59
2022/07/25 10:42:22;;;;;;;6.42;3.45;;;;;;;24.91;44.55;100210.48;1739136;81;21115;-59
2022/07/25 10:44:56;;;;;;;7.62;3.87;;;;;;;25.04;44.60;100205.78;1737817;80;21074;-60
2022/07/25 10:47:25;;;;;;;5.92;4.05;;;;;;;25.11;45.30;100212.97;1730884;80;21047;-59
2022/07/25 10:49:58;;;;;;;6.08;3.80;;;;;;;25.14;44.97;100208.50;1735607;80;21543;-59
2022/07/25 10:52:28;;;;;;;8.80;4.28;;;;;;;25.20;45.53;100212.97;1726339;82;21109;-59
2022/07/25 10:54:57;;;;;;;7.42;4.62;;;;;;;25.25;45.80;100207.77;1727303;80;21106;-59
2022/07/25 10:57:23;;;;;;;6.70;4.12;;;;;;;25.28;45.31;100205.97;1743355;81;21561;-60
2022/07/25 10:59:51;;;;;;;6.50;3.98;;;;;;;25.31;46.54;100209.56;1732541;80;21024;-59
2022/07/25 11:02:18;;;;;;;5.53;3.58;;;;;;;25.31;45.79;100203.37;1741089;80;22223;-59
2022/07/25 11:04:57;;;;;;;9.10;4.40;;;;;;;25.32;44.91;100212.57;1741832;80;21604;-60
2022/07/25 11:07:23;;;;;;;5.90;4.15;;;;;;;25.37;44.95;100203.83;1736990;80;21224;-58
2022/07/25 11:09:59;;;;;;;8.33;4.08;;;;;;;25.44;44.58;100203.22;1748938;80;21027;-60
2022/07/25 11:12:27;;;;;;;8.05;4.30;;;;;;;25.47;44.14;100195.19;1755856;81;21557;-59
2022/07/25 11:15:05;;;;;;;7.15;4.10;;;;;;;25.56;44.91;100197.89;1735593;80;21506;-60
2022/07/25 11:17:33;;;;;;;6.50;4.22;;;;;;;25.64;44.98;100197.59;1745681;80;21074;-60
2022/07/25 11:20:07;;;;;;;5.47;3.58;;;;;;;25.71;44.73;100198.31;1753523;80;21011;-59
2022/07/25 11:22:34;;;;;;;10.60;4.00;;;;;;;25.75;43.79;100191.94;1740532;80;21051;-60
2022/07/25 11:25:02;;;;;;;5.67;3.60;;;;;;;25.77;43.63;100194.72;1753402;81;21118;-59
2022/07/25 11:27:31;;;;;;;5.80;3.33;;;;;;;25.84;43.41;100191.09;1753900;80;21063;-59
2022/07/25 11:30:13;;;;;;;6.53;4.30;;;;;;;25.91;43.19;100185.11;1755780;81;21011;-58
2022/07/25 11:32:49;;;;;;;5.92;3.62;;;;;;;25.93;44.64;100191.90;1749332;80;21139;-60